Estacada, OR

7:58 AM PST on February 25, 2017 (GMT -0800)
Day Hill | | Change Station
Active Advisory: Winter Weather Advisory

Elev 1125 ft 45.26 °N, 122.33 °W | Updated 3 minutes ago

Partly Cloudy
Partly Cloudy
32.6 °F
Feels Like 33 °F
N
0.0
Wind Variable Wind from East
Gusts 1.0 mph

Today
High -- | Low -- °F
--% Chance of Precip.
Yesterday
High -- | Low -- °F
Precip. -- in
Pressure 30.27 in
Visibility 10.0 miles
Clouds Scattered Clouds 6000 ft
Windchill 33 °F
Dew Point 30 °F
Humidity 89%
Rainfall 0.00 in
Snow Depth Not available.
6:53 AM 5:51 PM
Waning Crescent, 1% visible
METAR KTTD 251553Z 05003KT 10SM SCT060 02/M02 A3027 RMK AO2 SLP249 T00171017
Pressure 30.27 in
Visibility 10.0 miles
Clouds Scattered Clouds 6000 ft
Windchill 33 °F
Dew Point 30 °F
Humidity 89%
Rainfall 0.00 in
Snow Depth Not available.
6:53 AM 5:51 PM
Waning Crescent, 1% visible
METAR KTTD 251553Z 05003KT 10SM SCT060 02/M02 A3027 RMK AO2 SLP249 T00171017

Get Your Daily Forecast Email!

Thanks for signing up!

Be on the lookout for a verification email in your inbox.

You'll start receiving the daily forecast at 8 AM.

×

10-Day Weather Forecast

Almanac

Astronomy

Feb. 25, 2017 Rise Set
Actual Time
Civil Twilight
Nautical Twilight
Astronomical Twilight
Moon
Length of Visible Light
Length of Day
Tomorrow will be .
, % of the Moon is Illuminated

Today's Extremes

State Highs State Lows

Community

WunderPhotos

Upload Photos

1,962,540 photos uploaded!

WunderBlog® & News

Nearby

Air Quality

  Air Quality AQ Index Pollutant
Not available.

Snow Depth

Station Depth Elevation

Earthquake Activity

City Distance Mag. Time & Date
Minimum magnitude displayed is 2.5.

Coastal Water Temperatures

Place Temperature

Stations

Nearby Weather Stations

Station Location Temp. Windchill Dew Point Humidity Wind Precip. Elev Updated Type
                   

Watches & Warnings

Winter Weather Advisory
Issued: 3:25 AM PST Feb. 25, 2017 – National Weather Service

... Winter Weather Advisory in effect from 1 am to 4 PM PST
Sunday...


The National Weather Service in Portland has issued a Winter
Weather Advisory for snow... which is in effect from 1 am to 4 PM
PST Sunday.

* Timing... late tonight through late Monday afternoon. Heaviest
between 6 am and 10 am.

* Snow level... around 1200 feet.

* Snow accumulations... 3 to 5 inches.

* Impacts... roads will be snow covered and slick with winter-like
travel conditions.

Precautionary/preparedness actions...

A Winter Weather Advisory for snow means that periods of snow
will cause primarily travel difficulties. Be prepared for snow
covered roads and limited visibilities, and use caution while
driving.